createdAt,value
2018-12-04T00:00:48.065Z,7.53
2018-12-04T00:01:48.051Z,7.57
2018-12-04T00:02:48.037Z,7.54
2018-12-04T00:03:48.039Z,7.57
2018-12-04T00:04:48.013Z,7.56
2018-12-04T00:05:48.001Z,7.63
2018-12-04T00:06:47.997Z,7.58
2018-12-04T00:07:47.977Z,7.54
2018-12-04T00:08:47.966Z,7.61
2018-12-04T00:09:47.974Z,7.54
2018-12-04T00:10:47.941Z,7.54
2018-12-04T00:11:47.938Z,7.54
2018-12-04T00:12:47.930Z,7.53
2018-12-04T00:13:47.913Z,7.57
2018-12-04T00:14:47.918Z,7.53
2018-12-04T00:15:47.894Z,7.54
2018-12-04T00:16:47.881Z,7.50
2018-12-04T00:17:47.869Z,7.51
2018-12-04T00:18:47.861Z,7.57
2018-12-04T00:19:47.862Z,7.51
2018-12-04T00:20:47.838Z,7.56
2018-12-04T00:21:47.838Z,7.61
2018-12-04T00:22:47.854Z,7.60
2018-12-04T00:23:47.809Z,7.50
2018-12-04T00:24:47.807Z,7.53
2018-12-04T00:25:47.790Z,7.50
2018-12-04T00:26:47.770Z,7.50
2018-12-04T00:27:47.757Z,7.53
2018-12-04T00:28:47.753Z,7.47
2018-12-04T00:29:47.734Z,7.58
2018-12-04T00:30:47.746Z,7.56
2018-12-04T00:31:47.713Z,7.51
2018-12-04T00:32:47.706Z,7.48
2018-12-04T00:33:47.694Z,7.42
2018-12-04T00:34:47.681Z,7.43
2018-12-04T00:35:47.673Z,7.43
2018-12-04T00:36:47.673Z,7.45
2018-12-04T00:37:47.650Z,7.50
2018-12-04T00:38:47.641Z,7.50
2018-12-04T00:39:47.628Z,7.45
2018-12-04T00:40:47.621Z,7.43
2018-12-04T00:41:47.605Z,7.42
2018-12-04T00:42:47.618Z,7.39
2018-12-04T00:43:47.581Z,7.35
2018-12-04T00:44:47.565Z,7.42
2018-12-04T00:45:47.561Z,7.42
2018-12-04T00:46:47.549Z,7.42
2018-12-04T00:47:47.557Z,7.42
2018-12-04T00:48:47.523Z,7.45
2018-12-04T00:49:47.512Z,7.39
2018-12-04T00:50:47.501Z,7.40
2018-12-04T00:51:47.497Z,7.40
2018-12-04T00:52:47.497Z,7.38
2018-12-04T00:53:47.466Z,7.36
2018-12-04T00:54:47.456Z,7.36
2018-12-04T00:55:47.448Z,7.36
2018-12-04T00:56:47.436Z,7.43
2018-12-04T00:57:47.429Z,7.45
2018-12-04T00:58:47.428Z,7.43
2018-12-04T00:59:47.400Z,7.33
2018-12-04T01:00:47.388Z,7.33
2018-12-04T01:01:47.380Z,7.40
2018-12-04T01:02:47.372Z,7.35
2018-12-04T01:03:47.356Z,7.40
2018-12-04T01:04:47.363Z,7.32
2018-12-04T01:05:47.332Z,7.40
2018-12-04T01:06:47.321Z,7.31
2018-12-04T01:07:47.308Z,7.36
2018-12-04T01:08:47.297Z,7.29
2018-12-04T01:09:47.308Z,7.29
2018-12-04T01:10:47.281Z,7.31
2018-12-04T01:11:47.272Z,7.38
2018-12-04T01:12:47.313Z,7.31
2018-12-04T01:13:47.245Z,7.32
2018-12-04T01:14:47.236Z,7.38
2018-12-04T01:15:47.244Z,7.32
2018-12-04T01:16:47.214Z,7.31
2018-12-04T01:17:47.200Z,7.33
2018-12-04T01:18:47.197Z,7.32
2018-12-04T01:19:47.179Z,7.33
2018-12-04T01:20:47.173Z,7.20
2018-12-04T01:21:47.169Z,7.35
2018-12-04T01:22:47.145Z,7.17
2018-12-04T01:23:47.133Z,7.28
2018-12-04T01:24:47.129Z,7.29
2018-12-04T01:25:47.116Z,7.21
2018-12-04T01:26:47.104Z,7.18
2018-12-04T01:27:47.108Z,7.29
2018-12-04T01:28:47.084Z,7.18
2018-12-04T01:29:47.064Z,7.31
2018-12-04T01:30:47.056Z,7.24
2018-12-04T01:31:47.040Z,7.18
2018-12-04T01:32:47.032Z,7.31
2018-12-04T01:33:47.060Z,7.31
2018-12-04T01:34:47.011Z,7.17
2018-12-04T01:35:46.996Z,7.23
2018-12-04T01:36:46.989Z,7.18
2018-12-04T01:37:46.977Z,7.20
2018-12-04T01:38:46.968Z,7.21
2018-12-04T01:39:46.976Z,7.15
2018-12-04T01:40:46.944Z,7.20
2018-12-04T01:41:46.930Z,7.29
2018-12-04T01:42:46.916Z,7.21
2018-12-04T01:43:46.905Z,7.15
2018-12-04T01:44:46.901Z,7.20
2018-12-04T01:45:46.906Z,7.11
2018-12-04T01:46:46.886Z,7.35
2018-12-04T01:47:46.865Z,7.32
2018-12-04T01:48:46.848Z,7.36
2018-12-04T01:49:46.840Z,7.31
2018-12-04T01:50:46.857Z,7.28
2018-12-04T01:51:46.816Z,7.18
2018-12-04T01:52:46.809Z,7.25
2018-12-04T01:53:46.792Z,7.32
2018-12-04T01:54:46.784Z,7.23
2018-12-04T01:55:46.779Z,7.38
2018-12-04T01:56:46.784Z,7.33
2018-12-04T01:57:46.752Z,7.31
2018-12-04T01:58:46.752Z,7.28
2018-12-04T01:59:46.733Z,7.17
2018-12-04T02:00:46.716Z,7.14
2018-12-04T02:01:46.704Z,7.24
2018-12-04T02:02:46.710Z,7.33
2018-12-04T02:03:47.093Z,7.23
2018-12-04T02:04:46.696Z,7.18
2018-12-04T02:05:46.664Z,7.17
2018-12-04T02:06:46.649Z,7.18
2018-12-04T02:07:46.640Z,7.13
2018-12-04T02:08:46.632Z,7.29
2018-12-04T02:09:46.632Z,7.21
2018-12-04T02:10:46.616Z,7.21
2018-12-04T02:11:46.596Z,7.21
2018-12-04T02:12:46.588Z,7.17
2018-12-04T02:13:46.576Z,7.18
2018-12-04T02:14:46.564Z,7.17
2018-12-04T02:15:46.568Z,7.20
2018-12-04T02:16:46.540Z,7.20
2018-12-04T02:17:46.532Z,7.20
2018-12-04T02:18:46.524Z,7.18
2018-12-04T02:19:46.512Z,7.14
2018-12-04T02:20:46.511Z,7.18
2018-12-04T02:21:46.497Z,7.23
2018-12-04T02:22:46.472Z,7.18
2018-12-04T02:23:46.461Z,7.21
2018-12-04T02:24:46.462Z,7.17
2018-12-04T02:25:46.439Z,7.15
2018-12-04T02:26:46.454Z,7.13
2018-12-04T02:27:46.420Z,7.14
2018-12-04T02:28:46.403Z,7.15
2018-12-04T02:29:46.400Z,7.14
2018-12-04T02:30:46.380Z,7.13
2018-12-04T02:31:46.376Z,7.14
2018-12-04T02:32:46.387Z,7.11
2018-12-04T02:33:46.356Z,7.13
2018-12-04T02:34:46.342Z,7.15
2018-12-04T02:35:46.341Z,7.05
2018-12-04T02:36:46.312Z,7.15
2018-12-04T02:37:46.304Z,7.15
2018-12-04T02:38:46.308Z,7.20
2018-12-04T02:39:46.285Z,7.10
2018-12-04T02:40:46.277Z,7.13
2018-12-04T02:41:46.267Z,7.10
2018-12-04T02:42:46.251Z,7.13
2018-12-04T02:43:46.264Z,7.15
2018-12-04T02:44:46.229Z,7.13
2018-12-04T02:45:46.220Z,7.21
2018-12-04T02:46:46.205Z,7.15
2018-12-04T02:47:46.197Z,7.18
2018-12-04T02:48:46.208Z,7.17
2018-12-04T02:49:46.196Z,7.18
2018-12-04T02:50:46.160Z,7.14
2018-12-04T02:51:46.155Z,7.05
2018-12-04T02:52:46.140Z,7.05
2018-12-04T02:53:46.128Z,7.10
2018-12-04T02:54:46.116Z,7.06
2018-12-04T02:55:46.139Z,7.17
2018-12-04T02:56:46.099Z,7.06
2018-12-04T02:57:46.081Z,7.05
2018-12-04T02:58:46.073Z,7.14
2018-12-04T02:59:46.056Z,7.06
2018-12-04T03:00:46.060Z,7.07
2018-12-04T03:01:46.051Z,7.11
2018-12-04T03:02:46.033Z,7.05
2018-12-04T03:03:46.012Z,7.10
2018-12-04T03:04:46.005Z,7.14
2018-12-04T03:05:45.995Z,7.11
2018-12-04T03:06:46.000Z,7.03
2018-12-04T03:07:45.972Z,7.10
2018-12-04T03:08:45.968Z,7.10
2018-12-04T03:09:45.956Z,7.07
2018-12-04T03:10:45.940Z,7.03
2018-12-04T03:11:45.925Z,7.05
2018-12-04T03:12:45.944Z,7.11
2018-12-04T03:13:45.904Z,7.11
2018-12-04T03:14:45.902Z,7.14
2018-12-04T03:15:45.893Z,7.07
2018-12-04T03:16:45.872Z,7.07
2018-12-04T03:17:45.860Z,7.14
2018-12-04T03:18:45.869Z,7.05
2018-12-04T03:19:45.837Z,7.14
2018-12-04T03:20:45.824Z,7.13
2018-12-04T03:21:45.820Z,7.11
2018-12-04T03:22:45.805Z,7.11
2018-12-04T03:23:45.796Z,7.07
2018-12-04T03:24:45.800Z,7.13
2018-12-04T03:25:45.773Z,7.13
2018-12-04T03:26:45.758Z,7.05
2018-12-04T03:27:45.748Z,7.10
2018-12-04T03:28:45.743Z,7.03
2018-12-04T03:29:45.740Z,7.10
2018-12-04T03:30:45.713Z,7.00
2018-12-04T03:31:45.721Z,7.10
2018-12-04T03:32:45.689Z,6.97
2018-12-04T03:33:45.699Z,7.06
2018-12-04T03:34:45.668Z,6.99
2018-12-04T03:35:45.677Z,7.00
2018-12-04T03:36:45.645Z,7.03
2018-12-04T03:37:45.637Z,7.03
2018-12-04T03:38:45.629Z,7.00
2018-12-04T03:39:45.616Z,6.93
2018-12-04T03:40:45.607Z,6.93
2018-12-04T03:41:45.663Z,6.93
2018-12-04T03:42:45.585Z,6.82
2018-12-04T03:43:45.568Z,6.79
2018-12-04T03:44:45.556Z,6.87
2018-12-04T03:45:45.544Z,6.84
2018-12-04T03:46:45.557Z,6.84
2018-12-04T03:47:45.533Z,6.75
2018-12-04T03:48:45.516Z,6.81
2018-12-04T03:49:45.504Z,6.77
2018-12-04T03:50:45.488Z,6.72
2018-12-04T03:51:45.476Z,6.79
2018-12-04T03:52:45.489Z,6.74
2018-12-04T03:53:45.460Z,6.69
2018-12-04T03:54:45.449Z,6.74
2018-12-04T03:55:45.436Z,6.70
2018-12-04T03:56:45.428Z,6.79
2018-12-04T03:57:45.444Z,6.74
2018-12-04T03:58:45.412Z,6.74
2018-12-04T03:59:45.392Z,6.69
2018-12-04T04:00:45.376Z,6.72
2018-12-04T04:01:45.380Z,6.72
2018-12-04T04:02:45.361Z,6.67
2018-12-04T04:03:45.361Z,6.77
2018-12-04T04:04:45.337Z,6.72
2018-12-04T04:05:45.328Z,6.78
2018-12-04T04:06:45.317Z,6.74
2018-12-04T04:07:45.307Z,6.78
2018-12-04T04:08:45.301Z,6.75
2018-12-04T04:09:45.294Z,6.79
2018-12-04T04:10:45.266Z,6.78
2018-12-04T04:11:45.259Z,6.81
2018-12-04T04:12:45.249Z,6.70
2018-12-04T04:13:45.245Z,6.84
2018-12-04T04:14:45.241Z,6.72
2018-12-04T04:15:45.216Z,6.69
2018-12-04T04:16:45.205Z,6.88
2018-12-04T04:17:45.192Z,6.84
2018-12-04T04:18:45.178Z,6.88
2018-12-04T04:19:45.173Z,6.82
2018-12-04T04:20:45.182Z,6.82
2018-12-04T04:21:45.148Z,6.79
2018-12-04T04:22:45.136Z,6.85
2018-12-04T04:23:45.125Z,6.81
2018-12-04T04:24:45.113Z,6.79
2018-12-04T04:25:45.109Z,6.82
2018-12-04T04:26:45.116Z,6.89
2018-12-04T04:27:45.077Z,6.87
2018-12-04T04:28:45.071Z,6.88
2018-12-04T04:29:45.056Z,6.87
2018-12-04T04:30:45.046Z,6.87
2018-12-04T04:31:45.040Z,6.87
2018-12-04T04:32:45.049Z,6.85
2018-12-04T04:33:45.012Z,6.85
2018-12-04T04:34:45.025Z,6.81
2018-12-04T04:35:44.993Z,6.82
2018-12-04T04:36:44.977Z,6.78
2018-12-04T04:37:44.969Z,6.82
2018-12-04T04:38:44.960Z,6.89
2018-12-04T04:39:44.941Z,6.81
2018-12-04T04:40:44.957Z,6.84
2018-12-04T04:41:44.924Z,6.84
2018-12-04T04:42:44.915Z,6.85
2018-12-04T04:43:44.904Z,6.82
2018-12-04T04:44:44.886Z,6.82
2018-12-04T04:45:44.883Z,6.85
2018-12-04T04:46:44.892Z,6.84
2018-12-04T04:47:44.854Z,6.84
2018-12-04T04:48:44.849Z,6.85
2018-12-04T04:49:44.837Z,6.81
2018-12-04T04:50:44.825Z,6.84
2018-12-04T04:51:51.853Z,6.84
2018-12-04T04:52:44.801Z,6.81
2018-12-04T04:53:44.785Z,6.75
2018-12-04T04:54:44.778Z,6.82
2018-12-04T04:55:44.770Z,6.75
2018-12-04T04:56:44.756Z,6.75
2018-12-04T04:57:44.765Z,6.82
2018-12-04T04:58:44.729Z,6.78
2018-12-04T04:59:44.726Z,6.79
2018-12-04T05:00:44.715Z,6.72
2018-12-04T05:01:44.699Z,6.67
2018-12-04T05:02:44.705Z,6.70
2018-12-04T05:03:44.692Z,6.63
2018-12-04T05:04:44.685Z,6.62
2018-12-04T05:05:44.651Z,6.63
2018-12-04T05:06:44.648Z,6.60
2018-12-04T05:07:44.636Z,6.57
2018-12-04T05:08:44.624Z,6.64
2018-12-04T05:09:44.609Z,6.62
2018-12-04T05:10:44.633Z,6.60
2018-12-04T05:11:44.589Z,6.46
2018-12-04T05:12:44.588Z,6.51
2018-12-04T05:13:44.569Z,6.51
2018-12-04T05:14:44.552Z,6.52
2018-12-04T05:15:44.543Z,6.39
2018-12-04T05:16:44.555Z,6.41
2018-12-04T05:17:44.520Z,6.33
2018-12-04T05:18:44.517Z,6.38
2018-12-04T05:19:44.500Z,6.38
2018-12-04T05:20:44.488Z,6.30
2018-12-04T05:21:44.476Z,6.33
2018-12-04T05:22:44.475Z,6.30
2018-12-04T05:23:44.470Z,6.39
2018-12-04T05:24:44.441Z,6.36
2018-12-04T05:25:44.432Z,6.35
2018-12-04T05:26:44.451Z,6.33
2018-12-04T05:27:44.411Z,6.28
2018-12-04T05:28:44.395Z,6.24
2018-12-04T05:29:44.393Z,6.22
2018-12-04T05:30:44.379Z,6.26
2018-12-04T05:31:44.367Z,6.24
2018-12-04T05:32:44.384Z,6.17
2018-12-04T05:33:44.342Z,6.14
2018-12-04T05:34:44.335Z,6.20
2018-12-04T05:35:44.324Z,6.14
2018-12-04T05:36:44.312Z,6.11
2018-12-04T05:37:44.303Z,6.08
2018-12-04T05:38:44.416Z,6.05
2018-12-04T05:39:44.278Z,6.08
2018-12-04T05:40:44.291Z,6.07
2018-12-04T05:41:44.251Z,6.08
2018-12-04T05:42:44.520Z,6.02
2018-12-04T05:43:44.231Z,6.11
2018-12-04T05:44:44.222Z,6.04
2018-12-04T05:45:44.222Z,6.05
2018-12-04T05:46:44.215Z,5.99
2018-12-04T05:47:44.187Z,5.98
2018-12-04T05:48:44.176Z,5.99
2018-12-04T05:49:44.163Z,5.91
2018-12-04T05:50:44.157Z,5.94
2018-12-04T05:51:44.150Z,5.97
2018-12-04T05:52:53.674Z,5.84
2018-12-04T05:53:44.138Z,5.91
2018-12-04T05:54:44.109Z,5.94
2018-12-04T05:55:44.098Z,5.84
2018-12-04T05:56:44.092Z,5.93
2018-12-04T05:57:51.213Z,5.94
2018-12-04T05:58:44.061Z,5.87
2018-12-04T05:59:44.081Z,5.89
2018-12-04T06:00:44.048Z,5.75
2018-12-04T06:01:44.029Z,5.80
2018-12-04T06:02:44.021Z,5.84
2018-12-04T06:03:44.004Z,5.82
2018-12-04T06:04:44.001Z,5.86
2018-12-04T06:05:44.010Z,5.68
2018-12-04T06:06:43.976Z,5.76
2018-12-04T06:07:43.964Z,5.75
2018-12-04T06:08:43.993Z,5.71
2018-12-04T06:09:43.948Z,5.68
2018-12-04T06:10:43.936Z,5.69
2018-12-04T06:11:43.963Z,5.65
2018-12-04T06:12:43.908Z,5.57
2018-12-04T06:13:43.908Z,5.65
2018-12-04T06:14:43.888Z,5.56
2018-12-04T06:15:43.876Z,5.61
2018-12-04T06:16:43.876Z,5.57
2018-12-04T06:17:43.852Z,5.53
2018-12-04T06:18:43.892Z,5.48
2018-12-04T06:19:43.832Z,5.46
2018-12-04T06:20:43.830Z,5.48
2018-12-04T06:21:43.841Z,5.51
2018-12-04T06:22:43.804Z,5.46
2018-12-04T06:23:43.787Z,5.51
2018-12-04T06:24:43.855Z,5.43
2018-12-04T06:25:43.769Z,5.47
2018-12-04T06:26:43.791Z,5.41
2018-12-04T06:27:43.772Z,5.32
2018-12-04T06:28:43.733Z,5.33
2018-12-04T06:29:43.788Z,5.38
2018-12-04T06:30:43.763Z,5.36
2018-12-04T06:31:43.699Z,5.33
2018-12-04T06:32:43.711Z,5.33
2018-12-04T06:33:43.692Z,5.32
2018-12-04T06:34:43.663Z,5.30
2018-12-04T06:35:43.692Z,5.25
2018-12-04T06:36:43.647Z,5.26
2018-12-04T06:37:43.636Z,5.32
2018-12-04T06:38:43.625Z,5.23
2018-12-04T06:39:43.627Z,5.21
2018-12-04T06:40:43.596Z,5.18
2018-12-04T06:41:43.588Z,5.20
2018-12-04T06:42:43.620Z,5.26
2018-12-04T06:43:43.585Z,5.20
2018-12-04T06:44:46.713Z,5.26
2018-12-04T06:45:43.568Z,5.21
2018-12-04T06:46:43.536Z,5.20
2018-12-04T06:47:43.524Z,5.15
2018-12-04T06:48:43.520Z,5.17
2018-12-04T06:49:43.528Z,5.18
2018-12-04T06:50:43.507Z,5.20
2018-12-04T06:51:43.475Z,5.17
2018-12-04T06:52:43.472Z,5.18
2018-12-04T06:53:43.456Z,5.15
2018-12-04T06:54:43.448Z,5.08
2018-12-04T06:55:43.452Z,5.12
2018-12-04T06:56:43.424Z,5.14
2018-12-04T06:57:43.416Z,5.14
2018-12-04T06:58:43.439Z,5.04
2018-12-04T06:59:43.403Z,5.04
2018-12-04T07:00:43.407Z,5.07
2018-12-04T07:01:43.372Z,5.04
2018-12-04T07:02:43.356Z,5.08
2018-12-04T07:03:43.343Z,5.17
2018-12-04T07:04:43.340Z,5.14
2018-12-04T07:05:43.328Z,5.15
2018-12-04T07:06:43.332Z,5.14
2018-12-04T07:07:43.364Z,5.18
2018-12-04T07:08:43.292Z,5.15
2018-12-04T07:09:43.284Z,5.17
2018-12-04T07:10:43.339Z,5.18
2018-12-04T07:11:43.270Z,5.07
2018-12-04T07:12:43.248Z,5.20
2018-12-04T07:13:43.240Z,5.15
2018-12-04T07:14:43.232Z,5.18
2018-12-04T07:15:43.216Z,5.26
2018-12-04T07:16:43.238Z,5.30
2018-12-04T07:17:43.189Z,5.25
2018-12-04T07:18:43.176Z,5.30
2018-12-04T07:19:43.169Z,5.23
2018-12-04T07:20:43.180Z,5.26
2018-12-04T07:21:43.145Z,5.28
2018-12-04T07:22:43.151Z,5.26
2018-12-04T07:23:43.125Z,5.25
2018-12-04T07:24:43.125Z,5.28
2018-12-04T07:25:43.107Z,5.21
2018-12-04T07:26:43.092Z,5.26
2018-12-04T07:27:43.083Z,5.17
2018-12-04T07:28:43.095Z,5.18
2018-12-04T07:29:43.060Z,5.21
2018-12-04T07:30:43.083Z,5.17
2018-12-04T07:31:43.070Z,5.21
2018-12-04T07:32:43.027Z,5.20
2018-12-04T07:33:43.015Z,5.17
2018-12-04T07:34:43.029Z,5.18
2018-12-04T07:35:42.994Z,5.23
2018-12-04T07:36:42.988Z,5.20
2018-12-04T07:37:42.972Z,5.12
2018-12-04T07:38:42.995Z,5.17
2018-12-04T07:39:42.951Z,5.15
2018-12-04T07:40:43.529Z,5.14
2018-12-04T07:41:42.924Z,5.17
2018-12-04T07:42:42.947Z,5.15
2018-12-04T07:43:42.903Z,5.14
2018-12-04T07:44:42.888Z,5.17
2018-12-04T07:45:42.935Z,5.11
2018-12-04T07:46:42.868Z,5.12
2018-12-04T07:47:42.859Z,5.17
2018-12-04T07:48:42.843Z,5.07
2018-12-04T07:49:42.840Z,5.07
2018-12-04T07:50:42.835Z,5.04
2018-12-04T07:51:42.815Z,5.05
2018-12-04T07:52:42.799Z,5.07
2018-12-04T07:53:42.794Z,5.02
2018-12-04T07:54:42.786Z,4.99
2018-12-04T07:55:42.792Z,5.02
2018-12-04T07:56:42.788Z,5.02
2018-12-04T07:57:42.748Z,5.00
2018-12-04T07:58:42.736Z,5.02
2018-12-04T07:59:42.735Z,4.97
2018-12-04T08:00:42.719Z,4.97
2018-12-04T08:01:42.731Z,4.93
2018-12-04T08:02:42.703Z,5.00
2018-12-04T08:03:42.692Z,4.99
2018-12-04T08:04:42.683Z,4.96
2018-12-04T08:05:42.660Z,5.02
2018-12-04T08:06:42.651Z,4.97
2018-12-04T08:07:42.711Z,4.93
2018-12-04T08:08:42.627Z,5.00
2018-12-04T08:09:42.615Z,5.00
2018-12-04T08:10:42.611Z,5.00
2018-12-04T08:11:42.591Z,4.99
2018-12-04T08:12:42.595Z,4.96
2018-12-04T08:13:42.571Z,5.07
2018-12-04T08:14:42.556Z,5.07
2018-12-04T08:15:42.578Z,4.99
2018-12-04T08:16:42.531Z,5.05
2018-12-04T08:17:43.064Z,5.14
2018-12-04T08:18:42.539Z,5.14
2018-12-04T08:19:42.506Z,5.08
2018-12-04T08:20:42.498Z,5.15
2018-12-04T08:21:42.487Z,5.15
2018-12-04T08:22:42.474Z,5.20
2018-12-04T08:23:42.459Z,5.18
2018-12-04T08:24:42.487Z,5.25
2018-12-04T08:25:42.438Z,5.28
2018-12-04T08:26:42.422Z,5.29
2018-12-04T08:27:42.414Z,5.36
2018-12-04T08:28:42.406Z,5.39
2018-12-04T08:29:42.406Z,5.32
2018-12-04T08:30:42.382Z,5.41
2018-12-04T08:31:42.375Z,5.39
2018-12-04T08:32:42.363Z,5.35
2018-12-04T08:33:42.350Z,5.36
2018-12-04T08:34:42.398Z,5.38
2018-12-04T08:35:42.358Z,5.35
2018-12-04T08:36:42.318Z,5.41
2018-12-04T08:37:42.302Z,5.39
2018-12-04T08:38:42.335Z,5.39
2018-12-04T08:39:42.278Z,5.35
2018-12-04T08:40:42.266Z,5.38
2018-12-04T08:41:42.310Z,5.38
2018-12-04T08:42:42.247Z,5.41
2018-12-04T08:43:42.243Z,5.38
2018-12-04T08:44:42.235Z,5.41
2018-12-04T08:45:42.211Z,5.39
2018-12-04T08:46:42.218Z,5.32
2018-12-04T08:47:42.222Z,5.36
2018-12-04T08:48:42.187Z,5.32
2018-12-04T08:49:42.174Z,5.33
2018-12-04T08:50:42.159Z,5.26
2018-12-04T08:51:42.148Z,5.25
2018-12-04T08:52:42.159Z,5.26
2018-12-04T08:53:42.138Z,5.23
2018-12-04T08:54:42.114Z,5.20
2018-12-04T08:55:42.107Z,5.28
2018-12-04T08:56:42.124Z,5.23
2018-12-04T08:57:42.094Z,5.15
2018-12-04T08:58:42.074Z,5.18
2018-12-04T08:59:42.066Z,5.20
2018-12-04T09:00:42.060Z,5.21
2018-12-04T09:01:42.038Z,5.25
2018-12-04T09:02:42.022Z,5.20
2018-12-04T09:03:42.030Z,5.21
2018-12-04T09:04:42.051Z,5.28
2018-12-04T09:05:41.990Z,5.20
2018-12-04T09:06:41.998Z,5.21
2018-12-04T09:07:41.998Z,5.23
2018-12-04T09:08:41.994Z,5.25
2018-12-04T09:09:41.975Z,5.32
2018-12-04T09:10:41.934Z,5.32
2018-12-04T09:11:41.931Z,5.35
2018-12-04T09:12:41.914Z,5.30
2018-12-04T09:13:41.907Z,5.38
2018-12-04T09:14:41.942Z,5.35
2018-12-04T09:15:41.903Z,5.46
2018-12-04T09:16:41.875Z,5.46
2018-12-04T09:17:41.867Z,5.50
2018-12-04T09:18:41.848Z,5.46
2018-12-04T09:19:41.914Z,5.47
2018-12-04T09:20:41.865Z,5.57
2018-12-04T09:21:41.832Z,5.64
2018-12-04T09:22:41.847Z,5.66
2018-12-04T09:23:41.836Z,5.53
2018-12-04T09:24:41.785Z,5.64
2018-12-04T09:25:41.832Z,5.62
2018-12-04T09:26:41.775Z,5.72
2018-12-04T09:27:41.767Z,5.73
2018-12-04T09:28:41.734Z,5.72
2018-12-04T09:29:41.788Z,5.66
2018-12-04T09:30:41.747Z,5.73
2018-12-04T09:31:41.702Z,5.73
2018-12-04T09:32:41.710Z,5.80
2018-12-04T09:33:41.730Z,5.76
2018-12-04T09:34:41.678Z,5.73
2018-12-04T09:35:41.658Z,5.73
2018-12-04T09:36:41.670Z,5.68
2018-12-04T09:37:41.693Z,5.68
2018-12-04T09:38:41.632Z,5.72
2018-12-04T09:39:41.614Z,5.71
2018-12-04T09:40:41.606Z,5.66
2018-12-04T09:41:41.598Z,5.69
2018-12-04T09:42:41.581Z,5.66
2018-12-04T09:43:41.594Z,5.62
2018-12-04T09:44:41.562Z,5.76
2018-12-04T09:45:41.592Z,5.75
2018-12-04T09:46:41.537Z,5.69
2018-12-04T09:47:41.526Z,5.86
2018-12-04T09:48:41.514Z,5.79
2018-12-04T09:49:41.518Z,5.89
2018-12-04T09:50:41.498Z,5.93
2018-12-04T09:51:41.490Z,5.99
2018-12-04T09:52:41.474Z,5.99
2018-12-04T09:53:41.466Z,5.99
2018-12-04T09:54:41.478Z,6.11
2018-12-04T09:55:41.438Z,6.11
2018-12-04T09:56:41.431Z,6.07
2018-12-04T09:57:41.422Z,6.04
2018-12-04T09:58:41.398Z,6.22
2018-12-04T09:59:41.398Z,6.12
2018-12-04T10:00:41.390Z,6.27
2018-12-04T10:01:41.370Z,6.24
2018-12-04T10:02:41.374Z,6.17
2018-12-04T10:03:41.362Z,6.22
2018-12-04T10:04:41.344Z,6.24
2018-12-04T10:05:41.329Z,6.31
2018-12-04T10:06:41.340Z,6.38
2018-12-04T10:07:41.303Z,6.30
2018-12-04T10:08:41.438Z,6.28
2018-12-04T10:09:41.281Z,6.26
2018-12-04T10:10:41.269Z,6.42
2018-12-04T10:11:41.258Z,6.38
2018-12-04T10:12:41.350Z,6.35
2018-12-04T10:13:41.241Z,6.39
2018-12-04T10:14:41.221Z,6.42
2018-12-04T10:15:41.213Z,6.46
2018-12-04T10:16:41.385Z,6.42
2018-12-04T10:17:41.195Z,6.44
2018-12-04T10:18:41.348Z,6.48
2018-12-04T10:19:41.165Z,6.51
2018-12-04T10:20:41.181Z,6.44
2018-12-04T10:21:41.149Z,6.52
2018-12-04T10:22:41.133Z,6.46
2018-12-04T10:23:41.121Z,6.60
2018-12-04T10:24:41.121Z,6.60
2018-12-04T10:25:41.101Z,6.64
2018-12-04T10:26:41.094Z,6.64
2018-12-04T10:27:41.085Z,6.57
2018-12-04T10:28:41.101Z,6.74
2018-12-04T10:29:41.078Z,6.75
2018-12-04T10:30:41.041Z,6.74
2018-12-04T10:31:41.034Z,6.75
2018-12-04T10:32:41.045Z,6.74
2018-12-04T10:33:41.010Z,6.77
2018-12-04T10:34:41.003Z,6.81
2018-12-04T10:35:41.005Z,6.79
2018-12-04T10:36:41.001Z,6.82
2018-12-04T10:37:40.970Z,6.85
2018-12-04T10:38:40.962Z,6.89
2018-12-04T10:39:40.950Z,6.89
2018-12-04T10:40:40.931Z,6.88
2018-12-04T10:41:40.982Z,6.81
2018-12-04T10:42:40.913Z,6.95
2018-12-04T10:43:40.904Z,7.02
2018-12-04T10:44:40.897Z,7.06
2018-12-04T10:45:40.882Z,7.15
2018-12-04T10:46:40.886Z,7.15
2018-12-04T10:47:40.870Z,7.18
2018-12-04T10:48:40.854Z,7.17
2018-12-04T10:49:40.926Z,7.21
2018-12-04T10:50:40.826Z,7.33
2018-12-04T10:51:40.814Z,7.36
2018-12-04T10:52:40.960Z,7.32
2018-12-04T10:53:40.804Z,7.38
2018-12-04T10:54:40.772Z,7.35
2018-12-04T10:55:40.765Z,7.35
2018-12-04T10:56:40.811Z,7.35
2018-12-04T10:57:40.741Z,7.36
2018-12-04T10:58:40.752Z,7.36
2018-12-04T10:59:40.720Z,7.31
2018-12-04T11:00:40.708Z,7.35
2018-12-04T11:01:40.800Z,7.36
2018-12-04T11:02:40.690Z,7.50
2018-12-04T11:03:40.677Z,7.47
2018-12-04T11:04:40.679Z,7.60
2018-12-04T11:05:40.653Z,7.53
2018-12-04T11:06:40.644Z,7.54
2018-12-04T11:07:40.656Z,7.54
2018-12-04T11:08:40.622Z,7.66
2018-12-04T11:09:40.637Z,7.58
2018-12-04T11:10:40.596Z,7.63
2018-12-04T11:11:40.593Z,7.80
2018-12-04T11:12:40.573Z,7.66
2018-12-04T11:13:40.574Z,7.57
2018-12-04T11:14:40.588Z,7.54
2018-12-04T11:15:40.556Z,7.53
2018-12-04T11:16:40.543Z,7.54
2018-12-04T11:17:40.521Z,7.60
2018-12-04T11:18:40.510Z,7.70
2018-12-04T11:19:40.497Z,7.61
2018-12-04T11:20:40.485Z,7.69
2018-12-04T11:21:40.514Z,7.79
2018-12-04T11:22:40.473Z,7.72
2018-12-04T11:23:40.463Z,7.73
2018-12-04T11:24:40.448Z,7.87
2018-12-04T11:25:40.436Z,7.87
2018-12-04T11:26:40.470Z,7.95
2018-12-04T11:27:40.420Z,8.08
2018-12-04T11:28:40.396Z,8.00
2018-12-04T11:29:40.452Z,7.90
2018-12-04T11:30:40.373Z,7.98
2018-12-04T11:31:40.377Z,8.00
2018-12-04T11:32:40.370Z,8.20
2018-12-04T11:33:40.344Z,8.18
2018-12-04T11:34:40.329Z,8.23
2018-12-04T11:35:55.172Z,8.19
2018-12-04T11:36:40.385Z,8.26
2018-12-04T11:37:40.293Z,8.28
2018-12-04T11:38:40.297Z,8.31
2018-12-04T11:39:40.330Z,8.28
2018-12-04T11:40:40.265Z,8.09
2018-12-04T11:41:40.259Z,8.01
2018-12-04T11:42:40.257Z,8.00
2018-12-04T11:43:40.246Z,8.18
2018-12-04T11:44:40.236Z,8.23
2018-12-04T11:45:40.210Z,8.41
2018-12-04T11:46:40.197Z,8.31
2018-12-04T11:47:40.185Z,8.16
2018-12-04T11:48:40.176Z,8.13
2018-12-04T11:49:40.188Z,8.05
2018-12-04T11:50:40.365Z,8.05
2018-12-04T11:51:40.144Z,8.10
2018-12-04T11:52:40.127Z,8.03
2018-12-04T11:53:40.170Z,8.06
2018-12-04T11:54:40.109Z,8.10
2018-12-04T11:55:40.967Z,8.01
2018-12-04T11:56:40.092Z,8.06
2018-12-04T11:57:40.076Z,8.00
2018-12-04T11:58:40.077Z,8.03
2018-12-04T11:59:40.121Z,8.13
2018-12-04T12:00:40.041Z,8.13
2018-12-04T12:01:40.032Z,8.20
2018-12-04T12:03:31.397Z,8.24
2018-12-04T12:04:31.399Z,8.27
2018-12-04T12:05:31.373Z,8.34
2018-12-04T12:06:31.389Z,8.38
2018-12-04T12:07:31.349Z,8.48
2018-12-04T12:08:31.341Z,8.58
2018-12-04T12:09:31.329Z,8.79
2018-12-04T12:10:31.337Z,8.89
2018-12-04T12:11:31.304Z,8.87
2018-12-04T12:12:31.305Z,8.82
2018-12-04T12:13:31.425Z,8.74
2018-12-04T12:14:31.273Z,8.74
2018-12-04T12:15:31.261Z,8.61
2018-12-04T12:16:31.289Z,8.45
2018-12-04T12:17:31.236Z,8.45
2018-12-04T12:18:31.230Z,8.46
2018-12-04T12:19:31.221Z,8.45
2018-12-04T12:20:31.209Z,8.46
2018-12-04T12:21:31.192Z,8.46
2018-12-04T12:22:31.205Z,8.45
2018-12-04T12:23:31.188Z,8.49
2018-12-04T12:24:31.162Z,8.60
2018-12-04T12:25:31.149Z,8.64
2018-12-04T12:26:31.137Z,8.52
2018-12-04T12:27:31.126Z,8.46
2018-12-04T12:28:31.134Z,8.53
2018-12-04T12:29:31.116Z,8.44
2018-12-04T12:30:31.099Z,8.41
2018-12-04T12:31:31.083Z,8.33
2018-12-04T12:32:31.073Z,8.34
2018-12-04T12:33:31.059Z,8.36
2018-12-04T12:34:31.059Z,8.20
2018-12-04T12:35:31.055Z,8.30
2018-12-04T12:36:31.027Z,8.26
2018-12-04T12:37:31.014Z,8.24
2018-12-04T12:38:31.002Z,8.23
2018-12-04T12:39:31.010Z,8.26
2018-12-04T12:40:30.989Z,8.19
2018-12-04T12:41:30.986Z,8.18
2018-12-04T12:42:30.966Z,8.20
2018-12-04T12:43:30.950Z,8.20
2018-12-04T12:44:30.934Z,8.30
2018-12-04T12:45:30.929Z,8.20
2018-12-04T12:46:30.911Z,8.16
2018-12-04T12:47:30.922Z,8.09
2018-12-04T12:48:30.894Z,8.09
2018-12-04T12:49:30.881Z,8.15
2018-12-04T12:50:30.880Z,8.12
2018-12-04T12:51:30.857Z,8.13
2018-12-04T12:52:30.845Z,8.09
2018-12-04T12:53:30.845Z,8.10
2018-12-04T12:54:30.830Z,8.19
2018-12-04T12:55:30.810Z,8.13
2018-12-04T12:56:30.812Z,8.26
2018-12-04T12:57:30.789Z,8.15
2018-12-04T12:58:30.781Z,8.16
2018-12-04T12:59:30.765Z,8.19
2018-12-04T13:00:30.762Z,8.18
2018-12-04T13:01:30.774Z,8.23
2018-12-04T13:02:30.746Z,8.16
2018-12-04T13:03:30.726Z,8.20
2018-12-04T13:04:30.713Z,8.13
2018-12-04T13:05:30.702Z,8.16
2018-12-04T13:06:30.697Z,8.12
2018-12-04T13:07:30.690Z,8.12
2018-12-04T13:08:30.662Z,8.13
2018-12-04T13:09:30.654Z,8.23
2018-12-04T13:10:30.646Z,8.16
2018-12-04T13:11:30.650Z,8.15
2018-12-04T13:12:30.638Z,8.15
2018-12-04T13:13:30.616Z,8.05
2018-12-04T13:14:30.593Z,8.06
2018-12-04T13:15:30.591Z,8.08
2018-12-04T13:16:30.588Z,8.08
2018-12-04T13:17:30.566Z,8.09
2018-12-04T13:18:30.576Z,8.09
2018-12-04T13:19:30.548Z,8.15